createdAt,value
2019-05-10T00:03:08.107Z,97670.52
2019-05-10T00:08:44.810Z,97666.38
2019-05-10T00:14:25.869Z,97660.33
2019-05-10T00:19:47.543Z,97667.98
2019-05-10T00:25:09.598Z,97661.70
2019-05-10T00:30:31.444Z,97658.77
2019-05-10T00:35:53.688Z,97643.88
2019-05-10T00:41:15.289Z,97643.33
2019-05-10T00:46:37.629Z,97651.95
2019-05-10T00:51:59.744Z,97647.13
2019-05-10T00:57:21.387Z,97642.17
2019-05-10T01:02:42.923Z,97646.67
2019-05-10T01:08:04.675Z,97646.66
2019-05-10T01:13:26.418Z,97644.85
2019-05-10T01:18:47.592Z,97638.72
2019-05-10T01:24:09.201Z,97642.04
2019-05-10T01:29:30.792Z,97635.89
2019-05-10T01:34:52.380Z,97644.67
2019-05-10T01:40:14.414Z,97639.83
2019-05-10T01:45:35.760Z,97636.23
2019-05-10T01:50:57.511Z,97636.04
2019-05-10T01:56:19.092Z,97650.11
2019-05-10T02:01:40.843Z,97647.48
2019-05-10T02:07:02.630Z,97638.72
2019-05-10T02:12:25.758Z,97642.35
2019-05-10T02:17:47.569Z,97641.16
2019-05-10T02:23:09.296Z,97631.59
2019-05-10T02:28:31.273Z,97634.21
2019-05-10T02:33:53.439Z,97634.92
2019-05-10T02:39:14.905Z,97629.94
2019-05-10T02:44:36.876Z,97633.77
2019-05-10T02:49:59.333Z,97643.55
2019-05-10T02:55:22.015Z,97634.12
2019-05-10T03:00:45.828Z,97639.09
2019-05-10T03:06:07.734Z,97640.02
2019-05-10T03:11:32.669Z,97645.17
2019-05-10T03:16:54.108Z,97636.34
2019-05-10T03:22:18.025Z,97631.98
2019-05-10T03:27:39.805Z,97639.25
2019-05-10T03:33:01.659Z,97659.63
2019-05-10T03:38:23.605Z,97641.47
2019-05-10T03:43:45.389Z,97644.28
2019-05-10T03:49:07.107Z,97644.97
2019-05-10T03:54:28.939Z,97646.95
2019-05-10T03:59:50.347Z,97653.11
2019-05-10T04:05:12.628Z,97651.59
2019-05-10T04:10:34.073Z,97657.52
2019-05-10T04:15:55.693Z,97658.63
2019-05-10T04:21:17.459Z,97657.39
2019-05-10T04:26:39.505Z,97658.98
2019-05-10T04:32:01.195Z,97660.00
2019-05-10T04:37:22.960Z,97670.65
2019-05-10T04:42:44.798Z,97670.38
2019-05-10T04:48:06.537Z,97673.40
2019-05-10T04:53:28.381Z,97675.98
2019-05-10T04:58:49.741Z,97676.73
2019-05-10T05:04:11.206Z,97692.49
2019-05-10T05:09:32.826Z,97666.97
2019-05-10T05:14:54.359Z,97685.86
2019-05-10T05:20:16.126Z,97678.90
2019-05-10T05:25:40.242Z,97676.28
2019-05-10T05:31:01.502Z,97674.45
2019-05-10T05:36:23.280Z,97669.01
2019-05-10T05:41:48.905Z,97670.45
2019-05-10T05:47:08.514Z,97668.87
2019-05-10T05:52:30.416Z,97668.83
2019-05-10T05:57:52.189Z,97674.19
2019-05-10T06:03:19.265Z,97676.99
2019-05-10T06:08:37.199Z,97676.05
2019-05-10T06:14:03.925Z,97678.70
2019-05-10T06:19:29.380Z,97670.77
2019-05-10T06:24:46.651Z,97677.42
2019-05-10T06:30:09.910Z,97673.09
2019-05-10T06:35:31.848Z,97667.93
2019-05-10T06:40:53.379Z,97685.39
2019-05-10T06:46:15.170Z,97676.09
2019-05-10T06:51:36.778Z,97681.25
2019-05-10T06:56:58.447Z,97687.39
2019-05-10T07:02:26.002Z,97702.39
2019-05-10T07:07:45.402Z,97708.36
2019-05-10T07:13:07.412Z,97707.30
2019-05-10T07:18:29.408Z,97719.35
2019-05-10T07:23:50.940Z,97705.88
2019-05-10T07:29:27.910Z,97714.19
2019-05-10T07:34:36.192Z,97711.73
2019-05-10T07:39:57.361Z,97712.75
2019-05-10T07:45:25.647Z,97718.36
2019-05-10T07:50:49.688Z,97714.94
2019-05-10T07:56:08.006Z,97717.91
2019-05-10T08:01:32.704Z,97717.35
2019-05-10T08:06:53.395Z,97724.38
2019-05-10T08:12:15.249Z,97722.40
2019-05-10T08:17:43.134Z,97719.73
2019-05-10T08:23:02.825Z,97727.83
2019-05-10T08:28:27.872Z,97726.98
2019-05-10T08:33:53.670Z,97732.36
2019-05-10T08:39:13.986Z,97725.41
2019-05-10T08:44:35.842Z,97723.27
2019-05-10T08:50:11.798Z,97712.66
2019-05-10T08:55:22.628Z,97697.40
2019-05-10T09:00:54.277Z,97690.08
2019-05-10T09:06:11.885Z,97692.89
2019-05-10T09:11:32.749Z,97692.89
2019-05-10T09:17:00.776Z,97688.31
2019-05-10T09:22:26.042Z,97703.63
2019-05-10T09:28:04.503Z,97717.11
2019-05-10T09:33:22.456Z,97732.73
2019-05-10T09:38:46.375Z,97733.33
2019-05-10T09:44:08.185Z,97718.98
2019-05-10T09:49:30.061Z,97709.05
2019-05-10T09:54:51.136Z,97714.01
2019-05-10T10:00:17.459Z,97723.30
2019-05-10T10:05:40.305Z,97728.68
2019-05-10T10:11:13.302Z,97723.16
2019-05-10T10:16:28.070Z,97720.50
2019-05-10T10:21:49.505Z,97733.94
2019-05-10T10:27:11.070Z,97747.05
2019-05-10T10:32:34.871Z,97741.95
2019-05-10T10:37:57.541Z,97781.27
2019-05-10T10:43:19.977Z,97773.52
2019-05-10T10:48:43.665Z,97788.09
2019-05-10T10:54:07.411Z,97792.43
2019-05-10T10:59:29.430Z,97768.81
2019-05-10T11:04:50.755Z,97779.69
2019-05-10T11:10:18.994Z,97811.94
2019-05-10T11:15:36.773Z,97801.80
2019-05-10T11:21:01.761Z,97792.73
2019-05-10T11:26:26.768Z,97790.86
2019-05-10T11:31:50.174Z,97794.83
2019-05-10T11:37:10.647Z,97778.55
2019-05-10T11:42:32.509Z,97775.25
2019-05-10T11:47:59.089Z,97787.59
2019-05-10T11:53:17.976Z,97789.38
2019-05-10T11:58:45.964Z,97783.55
2019-05-10T12:04:05.153Z,97774.52
2019-05-10T12:09:27.068Z,97793.70
2019-05-10T12:14:48.913Z,97775.43
2019-05-10T12:20:12.529Z,97790.70
2019-05-10T12:26:13.469Z,97775.20
2019-05-10T12:30:58.334Z,97778.02
2019-05-10T12:36:26.066Z,97773.52
2019-05-10T12:41:47.805Z,97784.49
2019-05-10T12:47:07.856Z,97771.56
2019-05-10T12:52:31.933Z,97784.34
2019-05-10T12:57:53.525Z,97770.98
2019-05-10T13:03:18.856Z,97773.88
2019-05-10T13:08:38.682Z,97781.84
2019-05-10T13:14:01.071Z,97777.97
2019-05-10T13:19:24.470Z,97779.98
2019-05-10T13:24:46.309Z,97779.58
2019-05-10T13:30:09.551Z,97761.79
2019-05-10T13:35:31.316Z,97768.00
2019-05-10T13:40:53.243Z,97763.13
2019-05-10T13:46:14.712Z,97749.37
2019-05-10T13:51:36.371Z,97773.75
2019-05-10T13:56:58.104Z,97769.08
2019-05-10T14:02:23.018Z,97754.63
2019-05-10T14:07:50.965Z,97757.58
2019-05-10T14:13:07.424Z,97751.15
2019-05-10T14:18:29.354Z,97743.48
2019-05-10T14:23:51.248Z,97743.48
2019-05-10T14:29:12.908Z,97743.32
2019-05-10T14:34:37.921Z,97780.11
2019-05-10T14:39:58.502Z,97731.13
2019-05-10T14:45:20.696Z,97731.13
2019-05-10T14:50:46.214Z,97749.91
2019-05-10T14:56:08.033Z,97754.05
2019-05-10T15:01:30.234Z,97791.52
2019-05-10T15:06:51.853Z,97748.37
2019-05-10T15:12:16.289Z,97777.61
2019-05-10T15:17:37.286Z,97777.61
2019-05-10T15:22:59.458Z,97767.98
2019-05-10T15:28:21.065Z,97787.98
2019-05-10T15:33:42.865Z,97799.52
2019-05-10T15:39:06.019Z,97794.12
2019-05-10T15:44:31.205Z,97790.82
2019-05-10T15:49:54.657Z,97805.05
2019-05-10T15:55:17.072Z,97809.23
2019-05-10T16:00:41.545Z,97816.34
2019-05-10T16:06:02.935Z,97815.45
2019-05-10T16:11:24.454Z,97809.11
2019-05-10T16:16:46.321Z,97815.00
2019-05-10T16:22:07.839Z,97815.70
2019-05-10T16:27:33.959Z,97818.88
2019-05-10T16:32:53.619Z,97819.22
2019-05-10T16:38:15.812Z,97821.17
2019-05-10T16:43:38.251Z,97824.88
2019-05-10T16:49:00.076Z,97832.90
2019-05-10T16:54:25.517Z,97839.75
2019-05-10T16:59:46.125Z,97847.03
2019-05-10T17:05:09.666Z,97849.25
2019-05-10T17:10:32.914Z,97846.42
2019-05-10T17:15:55.617Z,97848.76
2019-05-10T17:21:18.867Z,97854.13
2019-05-10T17:26:41.082Z,97854.98
2019-05-10T17:32:04.592Z,97852.16
2019-05-10T17:37:29.861Z,97854.81
2019-05-10T17:42:51.606Z,97877.80
2019-05-10T17:48:13.864Z,97872.28
2019-05-10T17:53:36.554Z,97871.45
2019-05-10T17:58:57.992Z,97889.56
2019-05-10T18:04:20.402Z,97895.35
2019-05-10T18:09:42.369Z,97908.52
2019-05-10T18:15:05.213Z,97917.40
2019-05-10T18:20:27.138Z,97914.07
2019-05-10T18:25:52.514Z,97916.03
2019-05-10T18:31:13.102Z,97920.66
2019-05-10T18:36:51.042Z,97920.31
2019-05-10T18:42:10.023Z,97922.30
2019-05-10T18:47:32.783Z,97923.16
2019-05-10T18:52:54.795Z,97917.98
2019-05-10T18:58:17.245Z,97922.31
2019-05-10T19:03:39.425Z,97920.19
2019-05-10T19:09:01.454Z,97925.98
2019-05-10T19:14:29.013Z,97927.70
2019-05-10T19:19:59.271Z,97917.75
2019-05-10T19:25:24.163Z,97933.44
2019-05-10T19:31:03.800Z,97932.44
2019-05-10T19:36:14.747Z,97941.77
2019-05-10T19:41:36.445Z,97950.73
2019-05-10T19:46:58.396Z,97950.92
2019-05-10T19:52:25.616Z,97963.87
2019-05-10T19:57:44.224Z,97965.72
2019-05-10T20:03:06.337Z,97971.69
2019-05-10T20:08:28.119Z,97970.01
2019-05-10T20:13:50.401Z,97972.84
2019-05-10T20:19:12.809Z,97979.69
2019-05-10T20:24:42.142Z,97991.47
2019-05-10T20:30:04.405Z,97997.76
2019-05-10T20:35:26.142Z,97995.47
2019-05-10T20:40:48.097Z,98013.50
2019-05-10T20:46:11.577Z,98003.15
2019-05-10T20:51:34.123Z,98009.16
2019-05-10T20:56:56.100Z,98011.59
2019-05-10T21:02:20.177Z,98012.38
2019-05-10T21:07:43.606Z,98018.97
2019-05-10T21:13:08.168Z,98027.20
2019-05-10T21:18:30.325Z,98019.56
2019-05-10T21:23:52.166Z,98026.30
2019-05-10T21:29:13.895Z,98034.89
2019-05-10T21:34:35.435Z,98038.39
2019-05-10T21:39:57.656Z,98035.83
2019-05-10T21:45:19.975Z,98037.02
2019-05-10T21:50:42.115Z,98046.27
2019-05-10T21:56:03.979Z,98053.29
2019-05-10T22:01:26.022Z,98064.48
2019-05-10T22:06:47.942Z,98062.05
2019-05-10T22:12:10.287Z,98051.42
2019-05-10T22:17:32.082Z,98057.20
2019-05-10T22:22:53.704Z,98059.61
2019-05-10T22:28:16.215Z,98067.18
2019-05-10T22:33:37.866Z,98068.33
2019-05-10T22:39:07.131Z,98077.28
2019-05-10T22:44:23.369Z,98073.00
2019-05-10T22:49:45.399Z,98070.59
2019-05-10T22:55:07.754Z,98074.30
2019-05-10T23:00:29.622Z,98060.11
2019-05-10T23:05:51.467Z,98054.73
2019-05-10T23:11:13.341Z,98053.92
2019-05-10T23:16:34.833Z,98045.33
2019-05-10T23:21:56.646Z,98038.53
2019-05-10T23:27:18.572Z,98053.51
2019-05-10T23:32:40.189Z,98047.81
2019-05-10T23:38:02.010Z,98052.53
2019-05-10T23:43:23.669Z,98045.62
2019-05-10T23:48:45.620Z,98052.79
2019-05-10T23:54:07.416Z,98051.48
2019-05-10T23:59:29.082Z,98066.11
